sensor_id;sensor_type;location;lat;lon;timestamp;P1;durP1;ratioP1;P2;durP2;ratioP2
609;SDS011;292;48.800;9.216;2024-02-26T00:01:12;2.63;;;1.60;;
609;SDS011;292;48.800;9.216;2024-02-26T00:03:40;4.13;;;2.30;;
609;SDS011;292;48.800;9.216;2024-02-26T00:06:10;4.83;;;1.50;;
609;SDS011;292;48.800;9.216;2024-02-26T00:08:37;3.80;;;2.07;;
609;SDS011;292;48.800;9.216;2024-02-26T00:11:04;2.53;;;1.53;;
609;SDS011;292;48.800;9.216;2024-02-26T00:13:31;3.10;;;1.63;;
609;SDS011;292;48.800;9.216;2024-02-26T00:15:58;4.83;;;2.10;;
609;SDS011;292;48.800;9.216;2024-02-26T00:18:27;3.60;;;2.03;;
609;SDS011;292;48.800;9.216;2024-02-26T00:20:56;2.37;;;1.53;;
609;SDS011;292;48.800;9.216;2024-02-26T00:23:25;4.33;;;2.20;;
609;SDS011;292;48.800;9.216;2024-02-26T00:25:53;5.67;;;2.40;;
609;SDS011;292;48.800;9.216;2024-02-26T00:28:20;9.27;;;2.43;;
609;SDS011;292;48.800;9.216;2024-02-26T00:30:49;4.83;;;2.23;;
609;SDS011;292;48.800;9.216;2024-02-26T00:33:20;3.97;;;2.30;;
609;SDS011;292;48.800;9.216;2024-02-26T00:35:48;6.73;;;2.73;;
609;SDS011;292;48.800;9.216;2024-02-26T00:38:16;4.40;;;2.43;;
609;SDS011;292;48.800;9.216;2024-02-26T00:40:43;3.90;;;2.20;;
609;SDS011;292;48.800;9.216;2024-02-26T00:43:13;3.40;;;2.00;;
609;SDS011;292;48.800;9.216;2024-02-26T00:45:40;3.87;;;1.80;;
609;SDS011;292;48.800;9.216;2024-02-26T00:48:07;7.60;;;2.47;;
609;SDS011;292;48.800;9.216;2024-02-26T00:50:34;5.10;;;2.53;;
609;SDS011;292;48.800;9.216;2024-02-26T00:53:01;3.43;;;1.90;;
609;SDS011;292;48.800;9.216;2024-02-26T00:55:31;3.97;;;2.13;;
609;SDS011;292;48.800;9.216;2024-02-26T00:57:58;3.63;;;2.20;;
609;SDS011;292;48.800;9.216;2024-02-26T01:00:26;5.20;;;2.03;;
609;SDS011;292;48.800;9.216;2024-02-26T01:02:53;4.33;;;2.10;;
609;SDS011;292;48.800;9.216;2024-02-26T01:05:20;5.70;;;1.83;;
609;SDS011;292;48.800;9.216;2024-02-26T01:07:48;4.20;;;2.20;;
609;SDS011;292;48.800;9.216;2024-02-26T01:10:15;3.10;;;2.03;;
609;SDS011;292;48.800;9.216;2024-02-26T01:12:45;3.33;;;2.00;;
609;SDS011;292;48.800;9.216;2024-02-26T01:15:16;3.90;;;1.80;;
609;SDS011;292;48.800;9.216;2024-02-26T01:17:47;4.07;;;1.70;;
609;SDS011;292;48.800;9.216;2024-02-26T01:20:16;2.60;;;1.43;;
609;SDS011;292;48.800;9.216;2024-02-26T01:22:43;3.13;;;1.60;;
609;SDS011;292;48.800;9.216;2024-02-26T01:25:10;3.60;;;1.93;;
609;SDS011;292;48.800;9.216;2024-02-26T01:27:38;3.97;;;1.63;;
609;SDS011;292;48.800;9.216;2024-02-26T01:30:10;4.63;;;1.87;;
609;SDS011;292;48.800;9.216;2024-02-26T01:32:37;2.20;;;1.70;;
609;SDS011;292;48.800;9.216;2024-02-26T01:35:05;4.90;;;2.00;;
609;SDS011;292;48.800;9.216;2024-02-26T01:37:35;3.57;;;2.00;;
609;SDS011;292;48.800;9.216;2024-02-26T01:40:02;2.33;;;1.67;;
609;SDS011;292;48.800;9.216;2024-02-26T01:42:30;1.90;;;1.60;;
609;SDS011;292;48.800;9.216;2024-02-26T01:44:58;3.60;;;1.47;;
609;SDS011;292;48.800;9.216;2024-02-26T01:47:27;4.80;;;1.87;;
609;SDS011;292;48.800;9.216;2024-02-26T01:49:54;3.70;;;1.80;;
609;SDS011;292;48.800;9.216;2024-02-26T01:52:21;3.30;;;1.50;;
609;SDS011;292;48.800;9.216;2024-02-26T01:54:48;2.37;;;1.67;;
609;SDS011;292;48.800;9.216;2024-02-26T01:57:16;3.87;;;1.67;;
609;SDS011;292;48.800;9.216;2024-02-26T01:59:43;2.23;;;1.73;;
609;SDS011;292;48.800;9.216;2024-02-26T02:02:12;2.90;;;1.60;;
609;SDS011;292;48.800;9.216;2024-02-26T02:04:43;3.33;;;1.50;;
609;SDS011;292;48.800;9.216;2024-02-26T02:07:10;2.77;;;1.70;;
609;SDS011;292;48.800;9.216;2024-02-26T02:09:37;2.80;;;1.63;;
609;SDS011;292;48.800;9.216;2024-02-26T02:12:10;3.50;;;1.53;;
609;SDS011;292;48.800;9.216;2024-02-26T02:14:41;4.23;;;1.80;;
609;SDS011;292;48.800;9.216;2024-02-26T02:17:10;7.03;;;2.00;;
609;SDS011;292;48.800;9.216;2024-02-26T02:19:43;3.20;;;2.03;;
609;SDS011;292;48.800;9.216;2024-02-26T02:22:12;3.60;;;2.30;;
609;SDS011;292;48.800;9.216;2024-02-26T02:24:39;5.60;;;2.20;;
609;SDS011;292;48.800;9.216;2024-02-26T02:27:09;3.63;;;1.70;;
609;SDS011;292;48.800;9.216;2024-02-26T02:29:52;3.40;;;1.90;;
609;SDS011;292;48.800;9.216;2024-02-26T02:32:19;3.03;;;1.87;;
609;SDS011;292;48.800;9.216;2024-02-26T02:34:49;7.10;;;3.00;;
609;SDS011;292;48.800;9.216;2024-02-26T02:37:18;3.60;;;2.10;;
609;SDS011;292;48.800;9.216;2024-02-26T02:39:44;2.67;;;1.90;;
609;SDS011;292;48.800;9.216;2024-02-26T02:42:12;2.90;;;1.87;;
609;SDS011;292;48.800;9.216;2024-02-26T02:44:40;2.93;;;1.97;;
609;SDS011;292;48.800;9.216;2024-02-26T02:47:09;4.60;;;1.83;;
609;SDS011;292;48.800;9.216;2024-02-26T02:49:36;3.83;;;1.50;;
609;SDS011;292;48.800;9.216;2024-02-26T02:52:03;6.00;;;1.83;;
609;SDS011;292;48.800;9.216;2024-02-26T02:54:32;5.17;;;2.00;;
609;SDS011;292;48.800;9.216;2024-02-26T02:57:00;5.37;;;2.60;;
609;SDS011;292;48.800;9.216;2024-02-26T02:59:27;4.00;;;2.00;;
609;SDS011;292;48.800;9.216;2024-02-26T03:01:54;5.93;;;2.30;;
609;SDS011;292;48.800;9.216;2024-02-26T03:04:21;6.10;;;2.23;;
609;SDS011;292;48.800;9.216;2024-02-26T03:06:48;2.77;;;1.50;;
609;SDS011;292;48.800;9.216;2024-02-26T03:09:15;3.17;;;2.00;;
609;SDS011;292;48.800;9.216;2024-02-26T03:11:44;4.83;;;1.97;;
609;SDS011;292;48.800;9.216;2024-02-26T03:14:12;3.83;;;1.73;;
609;SDS011;292;48.800;9.216;2024-02-26T03:16:39;2.70;;;1.70;;
609;SDS011;292;48.800;9.216;2024-02-26T03:19:06;7.10;;;1.80;;
609;SDS011;292;48.800;9.216;2024-02-26T03:21:33;4.17;;;2.33;;
609;SDS011;292;48.800;9.216;2024-02-26T03:24:02;4.23;;;2.07;;
609;SDS011;292;48.800;9.216;2024-02-26T03:26:30;4.00;;;1.67;;
609;SDS011;292;48.800;9.216;2024-02-26T03:28:58;3.40;;;1.87;;
609;SDS011;292;48.800;9.216;2024-02-26T03:31:26;4.83;;;2.17;;
609;SDS011;292;48.800;9.216;2024-02-26T03:33:53;2.77;;;1.43;;
609;SDS011;292;48.800;9.216;2024-02-26T03:36:20;3.03;;;1.60;;
609;SDS011;292;48.800;9.216;2024-02-26T03:38:47;3.97;;;1.97;;
609;SDS011;292;48.800;9.216;2024-02-26T03:41:14;3.03;;;1.73;;
609;SDS011;292;48.800;9.216;2024-02-26T03:43:41;4.13;;;2.00;;
609;SDS011;292;48.800;9.216;2024-02-26T03:46:11;2.70;;;1.57;;
609;SDS011;292;48.800;9.216;2024-02-26T03:48:39;5.10;;;2.20;;
609;SDS011;292;48.800;9.216;2024-02-26T03:51:06;4.30;;;1.73;;
609;SDS011;292;48.800;9.216;2024-02-26T03:53:35;5.23;;;1.73;;
609;SDS011;292;48.800;9.216;2024-02-26T03:56:04;2.27;;;1.63;;
609;SDS011;292;48.800;9.216;2024-02-26T03:58:32;1.80;;;1.27;;
609;SDS011;292;48.800;9.216;2024-02-26T04:00:59;2.33;;;1.33;;
609;SDS011;292;48.800;9.216;2024-02-26T04:03:28;2.20;;;1.30;;
609;SDS011;292;48.800;9.216;2024-02-26T04:05:55;1.87;;;1.47;;
609;SDS011;292;48.800;9.216;2024-02-26T04:08:22;2.07;;;1.30;;
609;SDS011;292;48.800;9.216;2024-02-26T04:10:49;3.83;;;1.70;;
609;SDS011;292;48.800;9.216;2024-02-26T04:13:17;3.37;;;1.83;;
609;SDS011;292;48.800;9.216;2024-02-26T04:15:43;3.30;;;1.50;;
609;SDS011;292;48.800;9.216;2024-02-26T04:18:11;2.30;;;1.30;;
609;SDS011;292;48.800;9.216;2024-02-26T04:20:39;2.57;;;1.30;;
609;SDS011;292;48.800;9.216;2024-02-26T04:23:07;7.07;;;1.53;;
609;SDS011;292;48.800;9.216;2024-02-26T04:25:34;3.00;;;1.10;;
609;SDS011;292;48.800;9.216;2024-02-26T04:28:01;1.63;;;1.23;;
609;SDS011;292;48.800;9.216;2024-02-26T04:30:28;1.60;;;1.40;;
609;SDS011;292;48.800;9.216;2024-02-26T04:32:55;4.30;;;1.40;;
609;SDS011;292;48.800;9.216;2024-02-26T04:35:22;3.93;;;2.00;;
609;SDS011;292;48.800;9.216;2024-02-26T04:37:51;9.30;;;4.20;;
609;SDS011;292;48.800;9.216;2024-02-26T04:40:18;7.80;;;3.80;;
609;SDS011;292;48.800;9.216;2024-02-26T04:42:45;7.13;;;3.63;;
609;SDS011;292;48.800;9.216;2024-02-26T04:45:12;4.60;;;2.90;;
609;SDS011;292;48.800;9.216;2024-02-26T04:47:39;5.20;;;2.90;;
609;SDS011;292;48.800;9.216;2024-02-26T04:50:07;5.20;;;2.40;;
609;SDS011;292;48.800;9.216;2024-02-26T04:52:37;2.80;;;1.90;;
609;SDS011;292;48.800;9.216;2024-02-26T04:55:06;3.33;;;1.50;;
609;SDS011;292;48.800;9.216;2024-02-26T04:57:34;2.30;;;1.40;;
609;SDS011;292;48.800;9.216;2024-02-26T05:00:01;3.90;;;1.37;;
609;SDS011;292;48.800;9.216;2024-02-26T05:02:30;3.70;;;1.60;;
609;SDS011;292;48.800;9.216;2024-02-26T05:04:58;3.60;;;1.53;;
609;SDS011;292;48.800;9.216;2024-02-26T05:07:25;3.10;;;1.83;;
609;SDS011;292;48.800;9.216;2024-02-26T05:09:52;4.63;;;1.80;;
609;SDS011;292;48.800;9.216;2024-02-26T05:12:21;3.30;;;1.93;;
609;SDS011;292;48.800;9.216;2024-02-26T05:14:48;4.90;;;1.93;;
609;SDS011;292;48.800;9.216;2024-02-26T05:17:15;5.10;;;1.70;;
609;SDS011;292;48.800;9.216;2024-02-26T05:19:42;9.50;;;2.20;;
609;SDS011;292;48.800;9.216;2024-02-26T05:22:09;3.70;;;2.27;;
609;SDS011;292;48.800;9.216;2024-02-26T05:24:37;4.37;;;2.30;;
609;SDS011;292;48.800;9.216;2024-02-26T05:27:04;4.07;;;2.10;;
609;SDS011;292;48.800;9.216;2024-02-26T05:29:32;3.70;;;2.00;;
609;SDS011;292;48.800;9.216;2024-02-26T05:31:59;3.83;;;2.00;;
609;SDS011;292;48.800;9.216;2024-02-26T05:34:26;2.57;;;1.57;;
609;SDS011;292;48.800;9.216;2024-02-26T05:36:55;4.90;;;1.90;;
609;SDS011;292;48.800;9.216;2024-02-26T05:39:22;10.27;;;2.27;;
609;SDS011;292;48.800;9.216;2024-02-26T05:41:49;7.97;;;2.30;;
609;SDS011;292;48.800;9.216;2024-02-26T05:44:16;4.30;;;2.40;;
609;SDS011;292;48.800;9.216;2024-02-26T05:46:44;1.67;;;1.40;;
609;SDS011;292;48.800;9.216;2024-02-26T05:49:11;7.60;;;2.33;;
609;SDS011;292;48.800;9.216;2024-02-26T05:51:38;6.00;;;1.80;;
609;SDS011;292;48.800;9.216;2024-02-26T05:54:05;4.67;;;1.63;;
609;SDS011;292;48.800;9.216;2024-02-26T05:56:33;2.53;;;1.80;;
609;SDS011;292;48.800;9.216;2024-02-26T05:59:00;2.73;;;1.50;;
609;SDS011;292;48.800;9.216;2024-02-26T06:01:29;5.73;;;1.80;;
609;SDS011;292;48.800;9.216;2024-02-26T06:03:59;5.50;;;1.73;;
609;SDS011;292;48.800;9.216;2024-02-26T06:06:26;4.60;;;2.10;;
609;SDS011;292;48.800;9.216;2024-02-26T06:08:53;3.57;;;2.07;;
609;SDS011;292;48.800;9.216;2024-02-26T06:11:20;4.57;;;1.93;;
609;SDS011;292;48.800;9.216;2024-02-26T06:13:47;6.40;;;2.23;;
609;SDS011;292;48.800;9.216;2024-02-26T06:16:15;9.83;;;2.00;;
609;SDS011;292;48.800;9.216;2024-02-26T06:18:42;4.87;;;2.03;;
609;SDS011;292;48.800;9.216;2024-02-26T06:21:10;4.97;;;2.30;;
609;SDS011;292;48.800;9.216;2024-02-26T06:23:37;3.77;;;2.00;;
609;SDS011;292;48.800;9.216;2024-02-26T06:26:05;9.90;;;2.73;;
609;SDS011;292;48.800;9.216;2024-02-26T06:28:32;5.00;;;2.40;;
609;SDS011;292;48.800;9.216;2024-02-26T06:31:00;9.40;;;2.67;;
609;SDS011;292;48.800;9.216;2024-02-26T06:33:27;3.97;;;2.27;;
609;SDS011;292;48.800;9.216;2024-02-26T06:35:54;3.60;;;1.87;;
609;SDS011;292;48.800;9.216;2024-02-26T06:38:23;3.07;;;1.93;;
609;SDS011;292;48.800;9.216;2024-02-26T06:40:50;5.33;;;2.17;;
609;SDS011;292;48.800;9.216;2024-02-26T06:43:17;5.13;;;2.13;;
609;SDS011;292;48.800;9.216;2024-02-26T06:45:44;4.30;;;2.20;;
609;SDS011;292;48.800;9.216;2024-02-26T06:48:13;5.43;;;2.23;;
609;SDS011;292;48.800;9.216;2024-02-26T06:50:40;5.80;;;2.53;;
609;SDS011;292;48.800;9.216;2024-02-26T06:53:08;5.40;;;2.37;;
609;SDS011;292;48.800;9.216;2024-02-26T06:55:36;7.10;;;2.20;;
609;SDS011;292;48.800;9.216;2024-02-26T06:58:05;8.40;;;2.90;;
609;SDS011;292;48.800;9.216;2024-02-26T07:00:32;5.40;;;3.03;;
609;SDS011;292;48.800;9.216;2024-02-26T07:02:59;7.80;;;3.07;;
609;SDS011;292;48.800;9.216;2024-02-26T07:05:26;6.77;;;2.27;;
609;SDS011;292;48.800;9.216;2024-02-26T07:07:54;10.13;;;2.90;;
609;SDS011;292;48.800;9.216;2024-02-26T07:10:21;17.00;;;3.70;;
609;SDS011;292;48.800;9.216;2024-02-26T07:12:50;5.80;;;2.43;;
609;SDS011;292;48.800;9.216;2024-02-26T07:15:17;8.17;;;3.40;;
609;SDS011;292;48.800;9.216;2024-02-26T07:17:44;8.33;;;3.57;;
609;SDS011;292;48.800;9.216;2024-02-26T07:20:12;10.17;;;4.00;;
609;SDS011;292;48.800;9.216;2024-02-26T07:22:40;8.40;;;2.87;;
609;SDS011;292;48.800;9.216;2024-02-26T07:25:07;7.73;;;3.17;;
609;SDS011;292;48.800;9.216;2024-02-26T07:27:38;8.40;;;4.03;;
609;SDS011;292;48.800;9.216;2024-02-26T07:30:09;8.47;;;3.70;;
609;SDS011;292;48.800;9.216;2024-02-26T07:32:37;10.40;;;3.70;;
609;SDS011;292;48.800;9.216;2024-02-26T07:35:05;8.43;;;3.60;;
609;SDS011;292;48.800;9.216;2024-02-26T07:37:33;12.63;;;3.23;;
609;SDS011;292;48.800;9.216;2024-02-26T07:40:00;8.70;;;3.50;;
609;SDS011;292;48.800;9.216;2024-02-26T07:42:28;8.40;;;3.60;;
609;SDS011;292;48.800;9.216;2024-02-26T07:44:55;17.40;;;4.87;;
609;SDS011;292;48.800;9.216;2024-02-26T07:47:23;16.33;;;4.30;;
609;SDS011;292;48.800;9.216;2024-02-26T07:49:50;19.33;;;4.77;;
609;SDS011;292;48.800;9.216;2024-02-26T07:52:17;12.20;;;3.67;;
609;SDS011;292;48.800;9.216;2024-02-26T07:54:44;19.90;;;4.33;;
609;SDS011;292;48.800;9.216;2024-02-26T07:57:11;16.73;;;4.40;;
609;SDS011;292;48.800;9.216;2024-02-26T07:59:41;12.10;;;4.23;;
609;SDS011;292;48.800;9.216;2024-02-26T08:02:09;12.00;;;3.17;;
609;SDS011;292;48.800;9.216;2024-02-26T08:04:38;13.27;;;3.97;;
609;SDS011;292;48.800;9.216;2024-02-26T08:07:07;11.00;;;4.20;;
609;SDS011;292;48.800;9.216;2024-02-26T08:09:34;7.90;;;3.13;;
609;SDS011;292;48.800;9.216;2024-02-26T08:12:01;9.17;;;3.13;;
609;SDS011;292;48.800;9.216;2024-02-26T08:14:28;11.50;;;4.50;;
609;SDS011;292;48.800;9.216;2024-02-26T08:16:57;9.43;;;2.73;;
609;SDS011;292;48.800;9.216;2024-02-26T08:19:25;7.60;;;3.27;;
609;SDS011;292;48.800;9.216;2024-02-26T08:21:53;11.67;;;3.57;;
609;SDS011;292;48.800;9.216;2024-02-26T08:24:20;11.33;;;3.20;;
609;SDS011;292;48.800;9.216;2024-02-26T08:26:48;8.60;;;3.53;;
609;SDS011;292;48.800;9.216;2024-02-26T08:29:15;15.43;;;3.30;;
609;SDS011;292;48.800;9.216;2024-02-26T08:31:42;9.23;;;4.10;;
609;SDS011;292;48.800;9.216;2024-02-26T08:34:09;14.23;;;3.50;;
609;SDS011;292;48.800;9.216;2024-02-26T08:36:36;10.90;;;2.87;;
609;SDS011;292;48.800;9.216;2024-02-26T08:39:05;5.17;;;2.53;;
609;SDS011;292;48.800;9.216;2024-02-26T08:41:47;4.80;;;2.50;;
609;SDS011;292;48.800;9.216;2024-02-26T08:44:14;9.30;;;2.83;;
609;SDS011;292;48.800;9.216;2024-02-26T08:46:43;6.90;;;3.93;;
609;SDS011;292;48.800;9.216;2024-02-26T08:53:04;10.57;;;2.90;;
609;SDS011;292;48.800;9.216;2024-02-26T08:55:33;12.80;;;3.30;;
609;SDS011;292;48.800;9.216;2024-02-26T08:58:00;8.37;;;3.30;;
609;SDS011;292;48.800;9.216;2024-02-26T09:00:32;10.63;;;3.67;;
609;SDS011;292;48.800;9.216;2024-02-26T09:03:00;6.70;;;3.03;;
609;SDS011;292;48.800;9.216;2024-02-26T09:05:27;10.20;;;3.50;;
609;SDS011;292;48.800;9.216;2024-02-26T09:07:56;14.90;;;3.33;;
609;SDS011;292;48.800;9.216;2024-02-26T09:10:23;5.53;;;3.60;;
609;SDS011;292;48.800;9.216;2024-02-26T09:12:52;10.37;;;3.70;;
609;SDS011;292;48.800;9.216;2024-02-26T09:15:20;11.27;;;3.47;;
609;SDS011;292;48.800;9.216;2024-02-26T09:17:47;13.20;;;3.80;;
609;SDS011;292;48.800;9.216;2024-02-26T09:20:15;7.40;;;3.03;;
609;SDS011;292;48.800;9.216;2024-02-26T09:22:45;7.10;;;3.33;;
609;SDS011;292;48.800;9.216;2024-02-26T09:25:12;4.80;;;2.73;;
609;SDS011;292;48.800;9.216;2024-02-26T09:27:40;6.40;;;2.50;;
609;SDS011;292;48.800;9.216;2024-02-26T09:30:11;4.50;;;2.30;;
609;SDS011;292;48.800;9.216;2024-02-26T09:32:39;14.30;;;2.60;;
609;SDS011;292;48.800;9.216;2024-02-26T09:35:07;3.90;;;2.50;;
609;SDS011;292;48.800;9.216;2024-02-26T09:37:34;4.23;;;2.10;;
609;SDS011;292;48.800;9.216;2024-02-26T09:40:02;5.53;;;2.27;;
609;SDS011;292;48.800;9.216;2024-02-26T09:42:31;4.37;;;2.37;;
609;SDS011;292;48.800;9.216;2024-02-26T09:44:59;5.50;;;2.20;;
609;SDS011;292;48.800;9.216;2024-02-26T09:47:31;7.23;;;1.70;;
609;SDS011;292;48.800;9.216;2024-02-26T09:49:59;21.23;;;2.80;;
609;SDS011;292;48.800;9.216;2024-02-26T09:52:28;3.20;;;2.10;;
609;SDS011;292;48.800;9.216;2024-02-26T09:54:57;2.90;;;1.90;;
609;SDS011;292;48.800;9.216;2024-02-26T09:57:24;2.37;;;1.60;;
609;SDS011;292;48.800;9.216;2024-02-26T09:59:58;21.03;;;2.23;;
609;SDS011;292;48.800;9.216;2024-02-26T10:05:32;5.40;;;2.20;;
609;SDS011;292;48.800;9.216;2024-02-26T10:08:04;3.40;;;2.10;;
609;SDS011;292;48.800;9.216;2024-02-26T10:10:32;2.93;;;2.10;;
609;SDS011;292;48.800;9.216;2024-02-26T10:12:59;5.10;;;2.10;;
609;SDS011;292;48.800;9.216;2024-02-26T10:15:27;5.03;;;2.53;;
609;SDS011;292;48.800;9.216;2024-02-26T10:17:54;3.80;;;2.47;;
609;SDS011;292;48.800;9.216;2024-02-26T10:20:26;4.03;;;2.30;;
609;SDS011;292;48.800;9.216;2024-02-26T10:22:54;3.20;;;2.10;;
609;SDS011;292;48.800;9.216;2024-02-26T10:25:25;5.83;;;2.73;;
609;SDS011;292;48.800;9.216;2024-02-26T10:27:59;4.93;;;2.40;;
609;SDS011;292;48.800;9.216;2024-02-26T10:30:30;8.23;;;1.90;;
609;SDS011;292;48.800;9.216;2024-02-26T10:33:04;5.33;;;2.47;;
609;SDS011;292;48.800;9.216;2024-02-26T10:35:41;9.93;;;3.17;;
609;SDS011;292;48.800;9.216;2024-02-26T10:48:01;11.23;;;3.43;;
609;SDS011;292;48.800;9.216;2024-02-26T10:50:50;10.73;;;4.23;;
609;SDS011;292;48.800;9.216;2024-02-26T10:53:24;16.37;;;3.97;;
609;SDS011;292;48.800;9.216;2024-02-26T10:55:57;8.90;;;3.63;;
609;SDS011;292;48.800;9.216;2024-02-26T10:58:30;9.60;;;3.43;;
609;SDS011;292;48.800;9.216;2024-02-26T11:00:59;9.00;;;3.40;;
609;SDS011;292;48.800;9.216;2024-02-26T11:03:27;5.20;;;2.50;;
609;SDS011;292;48.800;9.216;2024-02-26T11:05:57;5.70;;;3.30;;
609;SDS011;292;48.800;9.216;2024-02-26T11:08:26;6.13;;;2.93;;
609;SDS011;292;48.800;9.216;2024-02-26T11:10:57;12.23;;;4.20;;
609;SDS011;292;48.800;9.216;2024-02-26T11:13:26;8.40;;;2.87;;
609;SDS011;292;48.800;9.216;2024-02-26T11:15:56;24.10;;;3.30;;
609;SDS011;292;48.800;9.216;2024-02-26T11:18:24;7.23;;;3.33;;
609;SDS011;292;48.800;9.216;2024-02-26T11:20:53;8.10;;;3.17;;
609;SDS011;292;48.800;9.216;2024-02-26T11:23:22;7.97;;;2.97;;
609;SDS011;292;48.800;9.216;2024-02-26T11:25:49;7.90;;;3.30;;
609;SDS011;292;48.800;9.216;2024-02-26T11:28:18;7.80;;;3.40;;
609;SDS011;292;48.800;9.216;2024-02-26T11:30:48;8.43;;;3.57;;
609;SDS011;292;48.800;9.216;2024-02-26T11:33:16;10.03;;;3.40;;
609;SDS011;292;48.800;9.216;2024-02-26T11:35:45;7.13;;;3.30;;
609;SDS011;292;48.800;9.216;2024-02-26T11:38:17;7.13;;;3.53;;
609;SDS011;292;48.800;9.216;2024-02-26T11:40:46;12.43;;;2.50;;
609;SDS011;292;48.800;9.216;2024-02-26T11:43:14;9.10;;;3.50;;
609;SDS011;292;48.800;9.216;2024-02-26T11:45:54;6.60;;;3.20;;
609;SDS011;292;48.800;9.216;2024-02-26T11:48:37;13.03;;;3.23;;
609;SDS011;292;48.800;9.216;2024-02-26T11:51:06;6.37;;;2.60;;
609;SDS011;292;48.800;9.216;2024-02-26T11:53:45;3.43;;;1.90;;
609;SDS011;292;48.800;9.216;2024-02-26T11:56:15;10.60;;;3.50;;
609;SDS011;292;48.800;9.216;2024-02-26T11:58:48;6.47;;;2.70;;
609;SDS011;292;48.800;9.216;2024-02-26T12:01:38;8.03;;;2.90;;
609;SDS011;292;48.800;9.216;2024-02-26T12:04:06;6.50;;;3.40;;
609;SDS011;292;48.800;9.216;2024-02-26T12:06:50;8.70;;;3.17;;
609;SDS011;292;48.800;9.216;2024-02-26T12:09:30;6.70;;;2.87;;
609;SDS011;292;48.800;9.216;2024-02-26T12:11:59;5.17;;;2.57;;
609;SDS011;292;48.800;9.216;2024-02-26T12:14:27;6.43;;;2.80;;
609;SDS011;292;48.800;9.216;2024-02-26T12:16:55;3.50;;;2.20;;
609;SDS011;292;48.800;9.216;2024-02-26T12:19:23;4.57;;;2.00;;
609;SDS011;292;48.800;9.216;2024-02-26T12:21:52;5.43;;;2.50;;
609;SDS011;292;48.800;9.216;2024-02-26T12:24:20;8.90;;;2.90;;
609;SDS011;292;48.800;9.216;2024-02-26T12:27:08;7.13;;;2.40;;
609;SDS011;292;48.800;9.216;2024-02-26T12:29:36;4.20;;;2.27;;
609;SDS011;292;48.800;9.216;2024-02-26T12:32:03;6.37;;;3.00;;
609;SDS011;292;48.800;9.216;2024-02-26T12:34:36;4.73;;;2.67;;
609;SDS011;292;48.800;9.216;2024-02-26T12:37:07;7.23;;;2.83;;
609;SDS011;292;48.800;9.216;2024-02-26T12:39:35;8.63;;;2.10;;
609;SDS011;292;48.800;9.216;2024-02-26T12:42:03;4.73;;;2.50;;
609;SDS011;292;48.800;9.216;2024-02-26T12:44:31;6.03;;;2.67;;
609;SDS011;292;48.800;9.216;2024-02-26T12:47:04;4.30;;;2.33;;
609;SDS011;292;48.800;9.216;2024-02-26T12:49:31;3.73;;;1.40;;
609;SDS011;292;48.800;9.216;2024-02-26T12:51:59;3.20;;;1.60;;
609;SDS011;292;48.800;9.216;2024-02-26T12:54:28;3.43;;;1.13;;
609;SDS011;292;48.800;9.216;2024-02-26T12:56:58;2.20;;;1.00;;
609;SDS011;292;48.800;9.216;2024-02-26T12:59:26;4.83;;;1.50;;
609;SDS011;292;48.800;9.216;2024-02-26T13:01:54;2.07;;;0.90;;
609;SDS011;292;48.800;9.216;2024-02-26T13:04:23;1.67;;;1.10;;
609;SDS011;292;48.800;9.216;2024-02-26T13:06:51;2.83;;;1.17;;
609;SDS011;292;48.800;9.216;2024-02-26T13:09:20;1.60;;;1.20;;
609;SDS011;292;48.800;9.216;2024-02-26T13:11:53;6.27;;;1.40;;
609;SDS011;292;48.800;9.216;2024-02-26T13:14:20;1.63;;;1.20;;
609;SDS011;292;48.800;9.216;2024-02-26T13:16:57;1.80;;;1.10;;
609;SDS011;292;48.800;9.216;2024-02-26T13:19:29;2.70;;;1.10;;
609;SDS011;292;48.800;9.216;2024-02-26T13:22:08;1.73;;;1.00;;
609;SDS011;292;48.800;9.216;2024-02-26T13:24:35;4.07;;;1.60;;
609;SDS011;292;48.800;9.216;2024-02-26T13:27:04;2.47;;;1.13;;
609;SDS011;292;48.800;9.216;2024-02-26T13:29:32;2.63;;;1.53;;
609;SDS011;292;48.800;9.216;2024-02-26T13:31:59;4.07;;;1.80;;
609;SDS011;292;48.800;9.216;2024-02-26T13:34:27;4.97;;;1.50;;
609;SDS011;292;48.800;9.216;2024-02-26T13:36:56;2.97;;;1.37;;
609;SDS011;292;48.800;9.216;2024-02-26T13:39:23;1.70;;;1.10;;
609;SDS011;292;48.800;9.216;2024-02-26T13:41:51;13.93;;;1.53;;
609;SDS011;292;48.800;9.216;2024-02-26T13:44:20;8.47;;;1.97;;
609;SDS011;292;48.800;9.216;2024-02-26T13:46:47;2.67;;;1.60;;
609;SDS011;292;48.800;9.216;2024-02-26T13:49:15;3.93;;;1.53;;
609;SDS011;292;48.800;9.216;2024-02-26T13:51:42;4.00;;;1.57;;
609;SDS011;292;48.800;9.216;2024-02-26T13:54:09;7.13;;;1.50;;
609;SDS011;292;48.800;9.216;2024-02-26T13:56:36;1.83;;;1.20;;
609;SDS011;292;48.800;9.216;2024-02-26T13:59:04;1.87;;;1.17;;
609;SDS011;292;48.800;9.216;2024-02-26T14:01:33;2.50;;;1.50;;
609;SDS011;292;48.800;9.216;2024-02-26T14:04:02;1.90;;;1.13;;
609;SDS011;292;48.800;9.216;2024-02-26T14:06:35;2.67;;;1.40;;
609;SDS011;292;48.800;9.216;2024-02-26T14:09:09;4.17;;;1.30;;
609;SDS011;292;48.800;9.216;2024-02-26T14:25:16;2.20;;;1.00;;
609;SDS011;292;48.800;9.216;2024-02-26T14:27:46;5.07;;;1.27;;
609;SDS011;292;48.800;9.216;2024-02-26T14:30:13;1.70;;;1.10;;
609;SDS011;292;48.800;9.216;2024-02-26T14:32:41;2.27;;;0.93;;
609;SDS011;292;48.800;9.216;2024-02-26T14:35:08;4.60;;;1.20;;
609;SDS011;292;48.800;9.216;2024-02-26T14:37:37;1.17;;;0.93;;
609;SDS011;292;48.800;9.216;2024-02-26T14:40:05;1.47;;;1.03;;
609;SDS011;292;48.800;9.216;2024-02-26T14:42:43;0.97;;;0.80;;
609;SDS011;292;48.800;9.216;2024-02-26T14:45:12;4.77;;;2.40;;
609;SDS011;292;48.800;9.216;2024-02-26T14:47:39;4.33;;;1.30;;
609;SDS011;292;48.800;9.216;2024-02-26T14:50:06;3.70;;;1.50;;
609;SDS011;292;48.800;9.216;2024-02-26T14:52:33;1.77;;;1.27;;
609;SDS011;292;48.800;9.216;2024-02-26T14:55:00;13.53;;;1.20;;
609;SDS011;292;48.800;9.216;2024-02-26T14:57:27;1.77;;;1.10;;
609;SDS011;292;48.800;9.216;2024-02-26T14:59:56;3.60;;;1.47;;
609;SDS011;292;48.800;9.216;2024-02-26T15:02:23;2.43;;;1.60;;
609;SDS011;292;48.800;9.216;2024-02-26T15:04:50;1.60;;;1.03;;
609;SDS011;292;48.800;9.216;2024-02-26T15:07:17;1.83;;;1.10;;
609;SDS011;292;48.800;9.216;2024-02-26T15:09:45;2.00;;;0.90;;
609;SDS011;292;48.800;9.216;2024-02-26T15:12:12;1.30;;;0.80;;
609;SDS011;292;48.800;9.216;2024-02-26T15:14:40;1.17;;;0.97;;
609;SDS011;292;48.800;9.216;2024-02-26T15:17:11;2.50;;;1.50;;
609;SDS011;292;48.800;9.216;2024-02-26T15:19:39;1.90;;;1.23;;
609;SDS011;292;48.800;9.216;2024-02-26T15:22:05;5.43;;;1.17;;
609;SDS011;292;48.800;9.216;2024-02-26T15:24:32;2.33;;;1.30;;
609;SDS011;292;48.800;9.216;2024-02-26T15:27:00;2.23;;;1.23;;
609;SDS011;292;48.800;9.216;2024-02-26T15:29:27;3.27;;;1.60;;
609;SDS011;292;48.800;9.216;2024-02-26T15:31:54;1.40;;;1.03;;
609;SDS011;292;48.800;9.216;2024-02-26T15:34:23;2.80;;;1.50;;
609;SDS011;292;48.800;9.216;2024-02-26T15:36:50;3.10;;;1.70;;
609;SDS011;292;48.800;9.216;2024-02-26T15:39:17;2.70;;;1.63;;
609;SDS011;292;48.800;9.216;2024-02-26T15:41:45;5.97;;;2.77;;
609;SDS011;292;48.800;9.216;2024-02-26T15:44:13;15.80;;;5.50;;
609;SDS011;292;48.800;9.216;2024-02-26T15:46:39;10.00;;;4.53;;
609;SDS011;292;48.800;9.216;2024-02-26T15:49:07;8.53;;;3.90;;
609;SDS011;292;48.800;9.216;2024-02-26T15:51:36;16.70;;;6.37;;
609;SDS011;292;48.800;9.216;2024-02-26T15:54:03;8.80;;;3.83;;
609;SDS011;292;48.800;9.216;2024-02-26T15:56:30;4.13;;;2.30;;
609;SDS011;292;48.800;9.216;2024-02-26T15:58:57;3.33;;;1.57;;
609;SDS011;292;48.800;9.216;2024-02-26T16:01:24;3.93;;;1.60;;
609;SDS011;292;48.800;9.216;2024-02-26T16:03:51;9.20;;;1.87;;
609;SDS011;292;48.800;9.216;2024-02-26T16:06:22;5.10;;;1.60;;
609;SDS011;292;48.800;9.216;2024-02-26T16:08:59;3.50;;;1.60;;
609;SDS011;292;48.800;9.216;2024-02-26T16:11:26;6.10;;;2.00;;
609;SDS011;292;48.800;9.216;2024-02-26T16:13:55;3.00;;;1.80;;
609;SDS011;292;48.800;9.216;2024-02-26T16:16:28;3.00;;;1.60;;
609;SDS011;292;48.800;9.216;2024-02-26T16:19:04;2.80;;;1.87;;
609;SDS011;292;48.800;9.216;2024-02-26T16:21:34;18.20;;;3.67;;